Sect Las Cucharas, Puerto Rico
Current Conditions -  °F | °C
As of 11:50 PM on Tuesday 27 Jan 2015 (Local Time) from TJPS Reporting Station
Scattered Clouds Scattered Clouds  
Wind Chill: 75°   Ceiling: Unl
Heat Index: 75°   Visibility: 8mi
Dew Point: 72°   Wind: 6mph
Humidity: 89%   Direction: 30°NNE
Pressure: 30"   Gusts: NA
Location:  18.0073°N, 66.5912°W
Report Text: TJPS 280350Z 03005KT 8SM FEW020 SCT050 24/22 A3000
Loading
Personal Weather Stations






























Interactive Weather Map New forecast layout! Learn more

10-Day Weather Forecast

Advertisements
Track Severe Weather on mobile